La Esperanza Airport


Codes: MHLE/LEZ
Name: La Esperanza Airport
City: La Esperanza
Country: Honduras
Elevation: 5475 ft.

Photos at La Esperanza Airport


   Photos courtesy of SpottingLog. You can add your own sightings and photos by signing up for a free trial today.



No photos found.

Weather at La Esperanza Airport


Time (UTC)DescriptionTempratureWindCloud coverageVisibilityPressureHumidity
23-May-2024 21:00Light Rain24°C4 mph, SW55%10000m1012hPa56%
24-May-2024 00:00Light Rain22°C7 mph, SW60%10000m1013hPa66%
24-May-2024 03:00Light Rain18°C2 mph, S70%10000m1016hPa90%
24-May-2024 06:00Light Rain16°C2 mph, SW37%10000m1016hPa96%
24-May-2024 09:00Light Rain15°C2 mph, SW9%10000m1014hPa98%
24-May-2024 12:00Clear Sky16°C0 mph, SW7%10000m1015hPa95%
24-May-2024 15:00Clear Sky23°C4 mph, SW0%10000m1015hPa60%
24-May-2024 18:00Light Rain27°C7 mph, SW21%10000m1012hPa44%
24-May-2024 21:00Light Rain25°C7 mph, SW100%10000m1011hPa53%
25-May-2024 00:00Light Rain19°C7 mph, SW83%10000m1013hPa83%
25-May-2024 03:00Light Rain17°C2 mph, SW63%10000m1015hPa94%
25-May-2024 06:00Light Rain16°C2 mph, SW68%129m1015hPa98%
25-May-2024 09:00Light Rain16°C2 mph, SW74%10000m1014hPa96%
25-May-2024 12:00Broken Clouds16°C0 mph, W71%10000m1015hPa94%
25-May-2024 15:00Light Rain23°C4 mph, W8%10000m1015hPa64%
25-May-2024 18:00Light Rain25°C7 mph, SW37%10000m1013hPa54%
25-May-2024 21:00Light Rain25°C7 mph, S74%10000m1011hPa56%
26-May-2024 00:00Light Rain19°C4 mph, S75%10000m1013hPa87%
26-May-2024 03:00Light Rain16°C2 mph, S5%10000m1015hPa95%
26-May-2024 06:00Light Rain16°C2 mph, SW0%8116m1015hPa93%
26-May-2024 09:00Light Rain16°C0 mph, W20%10000m1014hPa95%
26-May-2024 12:00Scattered Clouds16°C0 mph, S33%10000m1015hPa90%
26-May-2024 15:00Clear Sky23°C4 mph, SW1%10000m1015hPa64%
26-May-2024 18:00Light Rain25°C7 mph, SW23%10000m1013hPa56%
26-May-2024 21:00Light Rain23°C7 mph, SW68%10000m1012hPa66%
27-May-2024 00:00Moderate Rain18°C2 mph, S54%10000m1014hPa90%
27-May-2024 03:00Light Rain17°C2 mph, N69%10000m1016hPa88%
27-May-2024 06:00Light Rain16°C2 mph, S60%10000m1016hPa86%
27-May-2024 09:00Light Rain15°C0 mph, SW3%10000m1015hPa93%
27-May-2024 12:00Clear Sky15°C0 mph, S2%10000m1016hPa92%
27-May-2024 15:00Clear Sky22°C4 mph, SW0%10000m1016hPa62%
27-May-2024 18:00Light Rain26°C4 mph, SW8%10000m1013hPa43%
27-May-2024 21:00Light Rain24°C7 mph, SW83%10000m1012hPa54%
28-May-2024 00:00Light Rain19°C4 mph, SW70%10000m1014hPa79%
28-May-2024 03:00Light Rain16°C0 mph, SE41%7610m1017hPa89%
28-May-2024 06:00Light Rain17°C2 mph, S76%10000m1016hPa87%
28-May-2024 09:00Light Rain15°C2 mph, S48%10000m1015hPa91%
28-May-2024 12:00Scattered Clouds16°C0 mph, SE27%10000m1017hPa89%
28-May-2024 15:00Clear Sky23°C2 mph, S1%10000m1017hPa60%
28-May-2024 18:00Light Rain27°C2 mph, SW5%10000m1014hPa41%